Time;durP1;ratioP1;P1;durP2;ratioP2;P2;SDS_P1;SDS_P2;PMS_P1;PMS_P2;Temp;Humidity;BMP_temperature;BMP_pressure;BME280_temperature;BME280_humidity;BME280_pressure;Samples;Min_cycle;Max_cycle;Signal;HPM_P1;HPM_P2
2021/04/14 00:00:04;;;;;;;19.7;12.1;;;;;;;-1.25;100;96172.38;;;;
2021/04/14 00:01:06;;;;;;;19.7;12.1;;;;;;;-1.25;100;96172.38;;;;
2021/04/14 00:02:08;;;;;;;19.7;12.1;;;;;;;-1.25;100;96172.38;;;;
2021/04/14 00:03:09;;;;;;;19.7;12.1;;;;;;;-1.25;100;96172.38;;;;
2021/04/14 00:04:17;;;;;;;19.7;12.1;;;;;;;-1.25;100;96172.38;;;;
2021/04/14 00:05:18;;;;;;;19.7;12.1;;;;;;;-1.25;100;96172.38;;;;
2021/04/14 00:06:20;;;;;;;19.7;12.1;;;;;;;-1.25;100;96172.38;;;;
2021/04/14 00:07:21;;;;;;;19.7;12.1;;;;;;;-1.25;100;96172.38;;;;
2021/04/14 00:08:21;;;;;;;19.7;12.1;;;;;;;-1.25;100;96172.38;;;;
2021/04/14 00:09:22;;;;;;;18.8;11.25;;;;;;;-1.33;100;96167.38;;;;
2021/04/14 00:10:22;;;;;;;18.8;11.25;;;;;;;-1.33;100;96167.38;;;;
2021/04/14 00:11:26;;;;;;;18.8;11.25;;;;;;;-1.33;100;96167.38;;;;
2021/04/14 00:12:26;;;;;;;18.8;11.25;;;;;;;-1.33;100;96167.38;;;;
2021/04/14 00:13:27;;;;;;;18.8;11.25;;;;;;;-1.33;100;96167.38;;;;
2021/04/14 00:14:32;;;;;;;18.8;11.25;;;;;;;-1.33;100;96167.38;;;;
2021/04/14 00:15:32;;;;;;;18.8;11.25;;;;;;;-1.33;100;96167.38;;;;
2021/04/14 00:16:36;;;;;;;18.8;11.25;;;;;;;-1.33;100;96167.38;;;;
2021/04/14 00:17:36;;;;;;;18.8;11.25;;;;;;;-1.33;100;96167.38;;;;
2021/04/14 00:18:37;;;;;;;18.8;11.25;;;;;;;-1.33;100;96167.38;;;;
2021/04/14 00:19:37;;;;;;;18.8;11.25;;;;;;;-1.33;100;96167.38;;;;
2021/04/14 00:20:38;;;;;;;18;10.7;;;;;;;-1.51;100;96161.63;;;;
2021/04/14 00:21:38;;;;;;;18;10.7;;;;;;;-1.51;100;96161.63;;;;
2021/04/14 00:22:39;;;;;;;18;10.7;;;;;;;-1.51;100;96161.63;;;;
2021/04/14 00:23:39;;;;;;;18;10.7;;;;;;;-1.51;100;96161.63;;;;
2021/04/14 00:24:40;;;;;;;18;10.7;;;;;;;-1.51;100;96161.63;;;;
2021/04/14 00:25:43;;;;;;;18;10.7;;;;;;;-1.51;100;96161.63;;;;
2021/04/14 00:26:44;;;;;;;18;10.7;;;;;;;-1.51;100;96161.63;;;;
2021/04/14 00:27:45;;;;;;;18;10.7;;;;;;;-1.51;100;96161.63;;;;
2021/04/14 00:28:45;;;;;;;18;10.7;;;;;;;-1.51;100;96161.63;;;;
2021/04/14 00:29:46;;;;;;;18;10.7;;;;;;;-1.51;100;96161.63;;;;
2021/04/14 00:30:47;;;;;;;18.35;10.55;;;;;;;-1.66;100;96158.09;;;;
2021/04/14 00:31:48;;;;;;;18.35;10.55;;;;;;;-1.66;100;96158.09;;;;
2021/04/14 00:32:49;;;;;;;18.35;10.55;;;;;;;-1.66;100;96158.09;;;;
2021/04/14 00:33:50;;;;;;;18.35;10.55;;;;;;;-1.66;100;96158.09;;;;
2021/04/14 00:34:50;;;;;;;18.35;10.55;;;;;;;-1.66;100;96158.09;;;;
2021/04/14 00:35:50;;;;;;;18.35;10.55;;;;;;;-1.66;100;96158.09;;;;
2021/04/14 00:36:52;;;;;;;18.35;10.55;;;;;;;-1.66;100;96158.09;;;;
2021/04/14 00:37:52;;;;;;;18.35;10.55;;;;;;;-1.66;100;96158.09;;;;
2021/04/14 00:38:53;;;;;;;18.35;10.55;;;;;;;-1.66;100;96158.09;;;;
2021/04/14 00:39:54;;;;;;;18.35;10.55;;;;;;;-1.66;100;96158.09;;;;
2021/04/14 00:40:55;;;;;;;18.35;10.55;;;;;;;-1.66;100;96158.09;;;;
2021/04/14 00:41:59;;;;;;;18.6;10.95;;;;;;;-1.79;100;96158.86;;;;
2021/04/14 00:43:00;;;;;;;18.6;10.95;;;;;;;-1.79;100;96158.86;;;;
2021/04/14 00:44:01;;;;;;;18.6;10.95;;;;;;;-1.79;100;96158.86;;;;
2021/04/14 00:45:03;;;;;;;18.6;10.95;;;;;;;-1.79;100;96158.86;;;;
2021/04/14 00:46:05;;;;;;;18.6;10.95;;;;;;;-1.79;100;96158.86;;;;
2021/04/14 00:47:07;;;;;;;18.6;10.95;;;;;;;-1.79;100;96158.86;;;;
2021/04/14 00:48:07;;;;;;;18.6;10.95;;;;;;;-1.79;100;96158.86;;;;
2021/04/14 00:49:09;;;;;;;18.6;10.95;;;;;;;-1.79;100;96158.86;;;;
2021/04/14 00:50:10;;;;;;;18.6;10.95;;;;;;;-1.79;100;96158.86;;;;
2021/04/14 00:51:14;;;;;;;18.6;10.95;;;;;;;-1.79;100;96158.86;;;;
2021/04/14 00:52:16;;;;;;;16.65;10.4;;;;;;;-1.9;100;96164.34;;;;
2021/04/14 00:53:16;;;;;;;16.65;10.4;;;;;;;-1.9;100;96164.34;;;;
2021/04/14 00:54:18;;;;;;;16.65;10.4;;;;;;;-1.9;100;96164.34;;;;
2021/04/14 00:55:19;;;;;;;16.65;10.4;;;;;;;-1.9;100;96164.34;;;;
2021/04/14 00:56:25;;;;;;;16.65;10.4;;;;;;;-1.9;100;96164.34;;;;
2021/04/14 00:57:25;;;;;;;16.65;10.4;;;;;;;-1.9;100;96164.34;;;;
2021/04/14 00:58:26;;;;;;;16.65;10.4;;;;;;;-1.9;100;96164.34;;;;
2021/04/14 00:59:26;;;;;;;16.65;10.4;;;;;;;-1.9;100;96164.34;;;;
2021/04/14 01:00:26;;;;;;;16.65;10.4;;;;;;;-1.9;100;96164.34;;;;
2021/04/14 01:01:31;;;;;;;16.65;10.4;;;;;;;-1.9;100;96164.34;;;;
2021/04/14 01:02:32;;;;;;;16.65;10.4;;;;;;;-1.9;100;96164.34;;;;
2021/04/14 01:03:34;;;;;;;18.5;11.55;;;;;;;-1.89;100;96150.15;;;;
2021/04/14 01:04:37;;;;;;;18.5;11.55;;;;;;;-1.89;100;96150.15;;;;
2021/04/14 01:05:37;;;;;;;18.5;11.55;;;;;;;-1.89;100;96150.15;;;;
2021/04/14 01:06:38;;;;;;;18.5;11.55;;;;;;;-1.89;100;96150.15;;;;
2021/04/14 01:07:39;;;;;;;18.5;11.55;;;;;;;-1.89;100;96150.15;;;;
2021/04/14 01:08:39;;;;;;;18.5;11.55;;;;;;;-1.89;100;96150.15;;;;
2021/04/14 01:09:40;;;;;;;18.5;11.55;;;;;;;-1.89;100;96150.15;;;;
2021/04/14 01:10:40;;;;;;;18.5;11.55;;;;;;;-1.89;100;96150.15;;;;
2021/04/14 01:11:41;;;;;;;18.5;11.55;;;;;;;-1.89;100;96150.15;;;;
2021/04/14 01:12:42;;;;;;;18.5;11.55;;;;;;;-1.89;100;96150.15;;;;
2021/04/14 01:13:42;;;;;;;18;10;;;;;;;-1.86;100;96139.7;;;;
2021/04/14 01:14:43;;;;;;;18;10;;;;;;;-1.86;100;96139.7;;;;
2021/04/14 01:15:44;;;;;;;18;10;;;;;;;-1.86;100;96139.7;;;;
2021/04/14 01:16:47;;;;;;;18;10;;;;;;;-1.86;100;96139.7;;;;
2021/04/14 01:17:47;;;;;;;18;10;;;;;;;-1.86;100;96139.7;;;;
2021/04/14 01:18:48;;;;;;;18;10;;;;;;;-1.86;100;96139.7;;;;
2021/04/14 01:19:48;;;;;;;18;10;;;;;;;-1.86;100;96139.7;;;;
2021/04/14 01:20:49;;;;;;;18;10;;;;;;;-1.86;100;96139.7;;;;
2021/04/14 01:21:50;;;;;;;18;10;;;;;;;-1.86;100;96139.7;;;;
2021/04/14 01:22:51;;;;;;;18;10;;;;;;;-1.86;100;96139.7;;;;
2021/04/14 01:23:52;;;;;;;18;10;;;;;;;-1.86;100;96139.7;;;;
2021/04/14 01:24:53;;;;;;;14.1;9.5;;;;;;;-1.92;100;96143.31;;;;
2021/04/14 01:25:53;;;;;;;14.1;9.5;;;;;;;-1.92;100;96143.31;;;;
2021/04/14 01:26:54;;;;;;;14.1;9.5;;;;;;;-1.92;100;96143.31;;;;
2021/04/14 01:27:55;;;;;;;14.1;9.5;;;;;;;-1.92;100;96143.31;;;;
2021/04/14 01:28:55;;;;;;;14.1;9.5;;;;;;;-1.92;100;96143.31;;;;
2021/04/14 01:29:56;;;;;;;14.1;9.5;;;;;;;-1.92;100;96143.31;;;;
2021/04/14 01:30:56;;;;;;;14.1;9.5;;;;;;;-1.92;100;96143.31;;;;
2021/04/14 01:31:59;;;;;;;14.1;9.5;;;;;;;-1.92;100;96143.31;;;;
2021/04/14 01:33:00;;;;;;;14.1;9.5;;;;;;;-1.92;100;96143.31;;;;
2021/04/14 01:34:00;;;;;;;14.1;9.5;;;;;;;-1.92;100;96143.31;;;;
2021/04/14 01:35:04;;;;;;;14.5;8.9;;;;;;;-1.93;100;96134.63;;;;
2021/04/14 01:36:06;;;;;;;14.5;8.9;;;;;;;-1.93;100;96134.63;;;;
2021/04/14 01:37:08;;;;;;;14.5;8.9;;;;;;;-1.93;100;96134.63;;;;
2021/04/14 01:38:09;;;;;;;14.5;8.9;;;;;;;-1.93;100;96134.63;;;;
2021/04/14 01:39:10;;;;;;;14.5;8.9;;;;;;;-1.93;100;96134.63;;;;
2021/04/14 01:40:13;;;;;;;14.5;8.9;;;;;;;-1.93;100;96134.63;;;;
2021/04/14 01:41:15;;;;;;;14.5;8.9;;;;;;;-1.93;100;96134.63;;;;
2021/04/14 01:42:15;;;;;;;14.5;8.9;;;;;;;-1.93;100;96134.63;;;;
2021/04/14 01:43:16;;;;;;;14.5;8.9;;;;;;;-1.93;100;96134.63;;;;
2021/04/14 01:44:16;;;;;;;14.5;8.9;;;;;;;-1.93;100;96134.63;;;;
2021/04/14 01:45:17;;;;;;;14.5;8.9;;;;;;;-1.93;100;96134.63;;;;
2021/04/14 01:46:21;;;;;;;14.85;8.849999;;;;;;;-2;100;96135.67;;;;
2021/04/14 01:47:21;;;;;;;14.85;8.849999;;;;;;;-2;100;96135.67;;;;
2021/04/14 01:48:22;;;;;;;14.85;8.849999;;;;;;;-2;100;96135.67;;;;
2021/04/14 01:49:23;;;;;;;14.85;8.849999;;;;;;;-2;100;96135.67;;;;
2021/04/14 01:50:23;;;;;;;14.85;8.849999;;;;;;;-2;100;96135.67;;;;
2021/04/14 01:51:24;;;;;;;14.85;8.849999;;;;;;;-2;100;96135.67;;;;
2021/04/14 01:52:25;;;;;;;14.85;8.849999;;;;;;;-2;100;96135.67;;;;
2021/04/14 01:53:26;;;;;;;14.85;8.849999;;;;;;;-2;100;96135.67;;;;
2021/04/14 01:54:26;;;;;;;14.85;8.849999;;;;;;;-2;100;96135.67;;;;
2021/04/14 01:55:27;;;;;;;14.85;8.849999;;;;;;;-2;100;96135.67;;;;
2021/04/14 01:56:28;;;;;;;14.95;8.35;;;;;;;-1.96;100;96129.11;;;;
2021/04/14 01:57:29;;;;;;;14.95;8.35;;;;;;;-1.96;100;96129.11;;;;
2021/04/14 01:58:31;;;;;;;14.95;8.35;;;;;;;-1.96;100;96129.11;;;;
2021/04/14 01:59:32;;;;;;;14.95;8.35;;;;;;;-1.96;100;96129.11;;;;
2021/04/14 02:00:33;;;;;;;14.95;8.35;;;;;;;-1.96;100;96129.11;;;;
2021/04/14 02:01:36;;;;;;;14.95;8.35;;;;;;;-1.96;100;96129.11;;;;
2021/04/14 02:02:37;;;;;;;14.95;8.35;;;;;;;-1.96;100;96129.11;;;;
2021/04/14 02:03:37;;;;;;;14.95;8.35;;;;;;;-1.96;100;96129.11;;;;
2021/04/14 02:04:40;;;;;;;14.95;8.35;;;;;;;-1.96;100;96129.11;;;;
2021/04/14 02:05:40;;;;;;;14.95;8.35;;;;;;;-1.96;100;96129.11;;;;
2021/04/14 02:06:41;;;;;;;14.95;8.35;;;;;;;-1.96;100;96129.11;;;;
2021/04/14 02:07:41;;;;;;;14.85;8.9;;;;;;;-2.04;100;96129.04;;;;
2021/04/14 02:08:42;;;;;;;14.85;8.9;;;;;;;-2.04;100;96129.04;;;;
2021/04/14 02:09:43;;;;;;;14.85;8.9;;;;;;;-2.04;100;96129.04;;;;
2021/04/14 02:10:44;;;;;;;14.85;8.9;;;;;;;-2.04;100;96129.04;;;;
2021/04/14 02:11:45;;;;;;;14.85;8.9;;;;;;;-2.04;100;96129.04;;;;
2021/04/14 02:12:46;;;;;;;14.85;8.9;;;;;;;-2.04;100;96129.04;;;;
2021/04/14 02:13:47;;;;;;;14.85;8.9;;;;;;;-2.04;100;96129.04;;;;
2021/04/14 02:14:47;;;;;;;14.85;8.9;;;;;;;-2.04;100;96129.04;;;;
2021/04/14 02:15:48;;;;;;;14.85;8.9;;;;;;;-2.04;100;96129.04;;;;
2021/04/14 02:16:50;;;;;;;14.85;8.9;;;;;;;-2.04;100;96129.04;;;;
2021/04/14 02:17:50;;;;;;;19;9.6;;;;;;;-2.01;100;96119.49;;;;
2021/04/14 02:18:52;;;;;;;19;9.6;;;;;;;-2.01;100;96119.49;;;;
2021/04/14 02:19:53;;;;;;;19;9.6;;;;;;;-2.01;100;96119.49;;;;
2021/04/14 02:20:54;;;;;;;19;9.6;;;;;;;-2.01;100;96119.49;;;;
2021/04/14 02:21:55;;;;;;;19;9.6;;;;;;;-2.01;100;96119.49;;;;
2021/04/14 02:22:56;;;;;;;19;9.6;;;;;;;-2.01;100;96119.49;;;;
2021/04/14 02:23:56;;;;;;;19;9.6;;;;;;;-2.01;100;96119.49;;;;
2021/04/14 02:24:57;;;;;;;19;9.6;;;;;;;-2.01;100;96119.49;;;;
2021/04/14 02:25:58;;;;;;;19;9.6;;;;;;;-2.01;100;96119.49;;;;
2021/04/14 02:27:00;;;;;;;19;9.6;;;;;;;-2.01;100;96119.49;;;;
2021/04/14 02:28:00;;;;;;;19;9.6;;;;;;;-2.01;100;96119.49;;;;
2021/04/14 02:29:01;;;;;;;13;8.45;;;;;;;-1.93;100;96110.39;;;;
2021/04/14 02:30:02;;;;;;;13;8.45;;;;;;;-1.93;100;96110.39;;;;
2021/04/14 02:31:04;;;;;;;13;8.45;;;;;;;-1.93;100;96110.39;;;;
2021/04/14 02:32:07;;;;;;;13;8.45;;;;;;;-1.93;100;96110.39;;;;
2021/04/14 02:33:08;;;;;;;13;8.45;;;;;;;-1.93;100;96110.39;;;;
2021/04/14 02:34:10;;;;;;;13;8.45;;;;;;;-1.93;100;96110.39;;;;
2021/04/14 02:35:14;;;;;;;13;8.45;;;;;;;-1.93;100;96110.39;;;;
2021/04/14 02:36:14;;;;;;;13;8.45;;;;;;;-1.93;100;96110.39;;;;
2021/04/14 02:37:14;;;;;;;13;8.45;;;;;;;-1.93;100;96110.39;;;;
2021/04/14 02:38:15;;;;;;;13;8.45;;;;;;;-1.93;100;96110.39;;;;
2021/04/14 02:39:17;;;;;;;13.8;8.900001;;;;;;;-2.05;100;96116.71;;;;
2021/04/14 02:40:18;;;;;;;13.8;8.900001;;;;;;;-2.05;100;96116.71;;;;
2021/04/14 02:41:20;;;;;;;13.8;8.900001;;;;;;;-2.05;100;96116.71;;;;
2021/04/14 02:42:21;;;;;;;13.8;8.900001;;;;;;;-2.05;100;96116.71;;;;
2021/04/14 02:43:21;;;;;;;13.8;8.900001;;;;;;;-2.05;100;96116.71;;;;
2021/04/14 02:44:22;;;;;;;13.8;8.900001;;;;;;;-2.05;100;96116.71;;;;
2021/04/14 02:45:23;;;;;;;13.8;8.900001;;;;;;;-2.05;100;96116.71;;;;
2021/04/14 02:46:26;;;;;;;13.8;8.900001;;;;;;;-2.05;100;96116.71;;;;
2021/04/14 02:47:27;;;;;;;13.8;8.900001;;;;;;;-2.05;100;96116.71;;;;
2021/04/14 02:48:27;;;;;;;13.8;8.900001;;;;;;;-2.05;100;96116.71;;;;
2021/04/14 02:49:28;;;;;;;13.8;8.900001;;;;;;;-2.05;100;96116.71;;;;
2021/04/14 02:50:28;;;;;;;15.95;8.950001;;;;;;;-2.1;100;96116.3;;;;
2021/04/14 02:51:29;;;;;;;15.95;8.950001;;;;;;;-2.1;100;96116.3;;;;
2021/04/14 02:52:30;;;;;;;15.95;8.950001;;;;;;;-2.1;100;96116.3;;;;
2021/04/14 02:53:30;;;;;;;15.95;8.950001;;;;;;;-2.1;100;96116.3;;;;
2021/04/14 02:54:31;;;;;;;15.95;8.950001;;;;;;;-2.1;100;96116.3;;;;
2021/04/14 02:55:31;;;;;;;15.95;8.950001;;;;;;;-2.1;100;96116.3;;;;
2021/04/14 02:56:34;;;;;;;15.95;8.950001;;;;;;;-2.1;100;96116.3;;;;
2021/04/14 02:57:34;;;;;;;15.95;8.950001;;;;;;;-2.1;100;96116.3;;;;
2021/04/14 02:58:35;;;;;;;15.95;8.950001;;;;;;;-2.1;100;96116.3;;;;
2021/04/14 02:59:35;;;;;;;15.95;8.950001;;;;;;;-2.1;100;96116.3;;;;
2021/04/14 03:00:36;;;;;;;20.55;10.9;;;;;;;-1.97;100;96105.02;;;;
2021/04/14 03:01:37;;;;;;;20.55;10.9;;;;;;;-1.97;100;96105.02;;;;
2021/04/14 03:02:38;;;;;;;20.55;10.9;;;;;;;-1.97;100;96105.02;;;;
2021/04/14 03:03:38;;;;;;;20.55;10.9;;;;;;;-1.97;100;96105.02;;;;
2021/04/14 03:04:39;;;;;;;20.55;10.9;;;;;;;-1.97;100;96105.02;;;;
2021/04/14 03:05:39;;;;;;;20.55;10.9;;;;;;;-1.97;100;96105.02;;;;
2021/04/14 03:06:40;;;;;;;20.55;10.9;;;;;;;-1.97;100;96105.02;;;;
2021/04/14 03:07:41;;;;;;;20.55;10.9;;;;;;;-1.97;100;96105.02;;;;
2021/04/14 03:08:41;;;;;;;20.55;10.9;;;;;;;-1.97;100;96105.02;;;;
2021/04/14 03:09:42;;;;;;;20.55;10.9;;;;;;;-1.97;100;96105.02;;;;
2021/04/14 03:10:42;;;;;;;20.55;10.9;;;;;;;-1.97;100;96105.02;;;;
2021/04/14 03:11:43;;;;;;;18.05;11.2;;;;;;;-1.67;100;96097.75;;;;
2021/04/14 03:12:43;;;;;;;18.05;11.2;;;;;;;-1.67;100;96097.75;;;;
2021/04/14 03:13:44;;;;;;;18.05;11.2;;;;;;;-1.67;100;96097.75;;;;
2021/04/14 03:14:45;;;;;;;18.05;11.2;;;;;;;-1.67;100;96097.75;;;;
2021/04/14 03:15:46;;;;;;;18.05;11.2;;;;;;;-1.67;100;96097.75;;;;
2021/04/14 03:16:47;;;;;;;18.05;11.2;;;;;;;-1.67;100;96097.75;;;;
2021/04/14 03:17:47;;;;;;;18.05;11.2;;;;;;;-1.67;100;96097.75;;;;
2021/04/14 03:18:48;;;;;;;18.05;11.2;;;;;;;-1.67;100;96097.75;;;;
2021/04/14 03:19:48;;;;;;;18.05;11.2;;;;;;;-1.67;100;96097.75;;;;
2021/04/14 03:20:49;;;;;;;18.05;11.2;;;;;;;-1.67;100;96097.75;;;;
2021/04/14 03:21:49;;;;;;;17.05;10.15;;;;;;;-1.62;100;96096.83;;;;
2021/04/14 03:22:51;;;;;;;17.05;10.15;;;;;;;-1.62;100;96096.83;;;;
2021/04/14 03:23:53;;;;;;;17.05;10.15;;;;;;;-1.62;100;96096.83;;;;
2021/04/14 03:24:53;;;;;;;17.05;10.15;;;;;;;-1.62;100;96096.83;;;;
2021/04/14 03:25:54;;;;;;;17.05;10.15;;;;;;;-1.62;100;96096.83;;;;
2021/04/14 03:26:55;;;;;;;17.05;10.15;;;;;;;-1.62;100;96096.83;;;;
2021/04/14 03:27:55;;;;;;;17.05;10.15;;;;;;;-1.62;100;96096.83;;;;
2021/04/14 03:28:56;;;;;;;17.05;10.15;;;;;;;-1.62;100;96096.83;;;;
2021/04/14 03:29:56;;;;;;;17.05;10.15;;;;;;;-1.62;100;96096.83;;;;
2021/04/14 03:30:57;;;;;;;17.05;10.15;;;;;;;-1.62;100;96096.83;;;;
2021/04/14 03:31:57;;;;;;;17.05;10.15;;;;;;;-1.62;100;96096.83;;;;
2021/04/14 03:32:58;;;;;;;14.9;9.900002;;;;;;;-1.58;100;96099.13;;;;
2021/04/14 03:33:58;;;;;;;14.9;9.900002;;;;;;;-1.58;100;96099.13;;;;
2021/04/14 03:34:59;;;;;;;14.9;9.900002;;;;;;;-1.58;100;96099.13;;;;
2021/04/14 03:36:00;;;;;;;14.9;9.900002;;;;;;;-1.58;100;96099.13;;;;
2021/04/14 03:37:01;;;;;;;14.9;9.900002;;;;;;;-1.58;100;96099.13;;;;
2021/04/14 03:38:01;;;;;;;14.9;9.900002;;;;;;;-1.58;100;96099.13;;;;
2021/04/14 03:39:03;;;;;;;14.9;9.900002;;;;;;;-1.58;100;96099.13;;;;
2021/04/14 03:40:05;;;;;;;14.9;9.900002;;;;;;;-1.58;100;96099.13;;;;
2021/04/14 03:41:07;;;;;;;14.9;9.900002;;;;;;;-1.58;100;96099.13;;;;
2021/04/14 03:42:08;;;;;;;14.9;9.900002;;;;;;;-1.58;100;96099.13;;;;
2021/04/14 03:43:08;;;;;;;17.05;10.05;;;;;;;-1.54;100;96092.58;;;;
2021/04/14 03:44:09;;;;;;;17.05;10.05;;;;;;;-1.54;100;96092.58;;;;
2021/04/14 03:45:12;;;;;;;17.05;10.05;;;;;;;-1.54;100;96092.58;;;;
2021/04/14 03:46:17;;;;;;;17.05;10.05;;;;;;;-1.54;100;96092.58;;;;
2021/04/14 03:47:17;;;;;;;17.05;10.05;;;;;;;-1.54;100;96092.58;;;;
2021/04/14 03:48:18;;;;;;;17.05;10.05;;;;;;;-1.54;100;96092.58;;;;
2021/04/14 03:49:18;;;;;;;17.05;10.05;;;;;;;-1.54;100;96092.58;;;;
2021/04/14 03:50:19;;;;;;;17.05;10.05;;;;;;;-1.54;100;96092.58;;;;
2021/04/14 03:51:21;;;;;;;17.05;10.05;;;;;;;-1.54;100;96092.58;;;;
2021/04/14 03:52:24;;;;;;;17.05;10.05;;;;;;;-1.54;100;96092.58;;;;
2021/04/14 03:53:26;;;;;;;17.05;10.05;;;;;;;-1.54;100;96092.58;;;;
2021/04/14 03:54:30;;;;;;;16.2;9.050001;;;;;;;-1.63;100;96087.23;;;;
2021/04/14 03:55:31;;;;;;;16.2;9.050001;;;;;;;-1.63;100;96087.23;;;;
2021/04/14 03:56:32;;;;;;;16.2;9.050001;;;;;;;-1.63;100;96087.23;;;;
2021/04/14 03:57:32;;;;;;;16.2;9.050001;;;;;;;-1.63;100;96087.23;;;;
2021/04/14 03:58:33;;;;;;;16.2;9.050001;;;;;;;-1.63;100;96087.23;;;;
2021/04/14 03:59:35;;;;;;;16.2;9.050001;;;;;;;-1.63;100;96087.23;;;;
2021/04/14 04:00:36;;;;;;;16.2;9.050001;;;;;;;-1.63;100;96087.23;;;;
2021/04/14 04:01:36;;;;;;;16.2;9.050001;;;;;;;-1.63;100;96087.23;;;;
2021/04/14 04:02:37;;;;;;;16.2;9.050001;;;;;;;-1.63;100;96087.23;;;;
2021/04/14 04:03:38;;;;;;;16.2;9.050001;;;;;;;-1.63;100;96087.23;;;;
2021/04/14 04:04:39;;;;;;;15.7;9.6;;;;;;;-1.72;100;96089.4;;;;
2021/04/14 04:05:40;;;;;;;15.7;9.6;;;;;;;-1.72;100;96089.4;;;;
2021/04/14 04:06:40;;;;;;;15.7;9.6;;;;;;;-1.72;100;96089.4;;;;
2021/04/14 04:07:41;;;;;;;15.7;9.6;;;;;;;-1.72;100;96089.4;;;;
2021/04/14 04:08:41;;;;;;;15.7;9.6;;;;;;;-1.72;100;96089.4;;;;
2021/04/14 04:09:42;;;;;;;15.7;9.6;;;;;;;-1.72;100;96089.4;;;;
2021/04/14 04:10:42;;;;;;;15.7;9.6;;;;;;;-1.72;100;96089.4;;;;
2021/04/14 04:11:43;;;;;;;15.7;9.6;;;;;;;-1.72;100;96089.4;;;;
2021/04/14 04:12:44;;;;;;;15.7;9.6;;;;;;;-1.72;100;96089.4;;;;
2021/04/14 04:13:45;;;;;;;15.7;9.6;;;;;;;-1.72;100;96089.4;;;;
2021/04/14 04:14:47;;;;;;;15.7;9.6;;;;;;;-1.72;100;96089.4;;;;
2021/04/14 04:15:48;;;;;;;15.65;9.450001;;;;;;;-1.84;100;96089.7;;;;
2021/04/14 04:16:50;;;;;;;15.65;9.450001;;;;;;;-1.84;100;96089.7;;;;
2021/04/14 04:17:50;;;;;;;15.65;9.450001;;;;;;;-1.84;100;96089.7;;;;
2021/04/14 04:18:50;;;;;;;15.65;9.450001;;;;;;;-1.84;100;96089.7;;;;
2021/04/14 04:19:51;;;;;;;15.65;9.450001;;;;;;;-1.84;100;96089.7;;;;
2021/04/14 04:20:52;;;;;;;15.65;9.450001;;;;;;;-1.84;100;96089.7;;;;
2021/04/14 04:21:53;;;;;;;15.65;9.450001;;;;;;;-1.84;100;96089.7;;;;
2021/04/14 04:22:54;;;;;;;15.65;9.450001;;;;;;;-1.84;100;96089.7;;;;
2021/04/14 04:23:54;;;;;;;15.65;9.450001;;;;;;;-1.84;100;96089.7;;;;
2021/04/14 04:24:55;;;;;;;15.65;9.450001;;;;;;;-1.84;100;96089.7;;;;
2021/04/14 04:25:55;;;;;;;14.4;9.3;;;;;;;-1.98;100;96097.17;;;;
2021/04/14 04:26:56;;;;;;;14.4;9.3;;;;;;;-1.98;100;96097.17;;;;
2021/04/14 04:27:57;;;;;;;14.4;9.3;;;;;;;-1.98;100;96097.17;;;;
2021/04/14 04:28:58;;;;;;;14.4;9.3;;;;;;;-1.98;100;96097.17;;;;
2021/04/14 04:29:59;;;;;;;14.4;9.3;;;;;;;-1.98;100;96097.17;;;;
2021/04/14 04:30:59;;;;;;;14.4;9.3;;;;;;;-1.98;100;96097.17;;;;
2021/04/14 04:32:00;;;;;;;14.4;9.3;;;;;;;-1.98;100;96097.17;;;;
2021/04/14 04:33:00;;;;;;;14.4;9.3;;;;;;;-1.98;100;96097.17;;;;
2021/04/14 04:34:02;;;;;;;14.4;9.3;;;;;;;-1.98;100;96097.17;;;;
2021/04/14 04:35:03;;;;;;;14.4;9.3;;;;;;;-1.98;100;96097.17;;;;
2021/04/14 04:36:05;;;;;;;14.4;9.3;;;;;;;-1.98;100;96097.17;;;;
2021/04/14 04:37:06;;;;;;;18.35;10.85;;;;;;;-2.11;100;96089.99;;;;
2021/04/14 04:38:06;;;;;;;18.35;10.85;;;;;;;-2.11;100;96089.99;;;;
2021/04/14 04:39:07;;;;;;;18.35;10.85;;;;;;;-2.11;100;96089.99;;;;
2021/04/14 04:40:07;;;;;;;18.35;10.85;;;;;;;-2.11;100;96089.99;;;;
2021/04/14 04:41:09;;;;;;;18.35;10.85;;;;;;;-2.11;100;96089.99;;;;
2021/04/14 04:42:10;;;;;;;18.35;10.85;;;;;;;-2.11;100;96089.99;;;;
2021/04/14 04:43:11;;;;;;;18.35;10.85;;;;;;;-2.11;100;96089.99;;;;
2021/04/14 04:44:12;;;;;;;18.35;10.85;;;;;;;-2.11;100;96089.99;;;;
2021/04/14 04:45:12;;;;;;;18.35;10.85;;;;;;;-2.11;100;96089.99;;;;
2021/04/14 04:46:15;;;;;;;18.35;10.85;;;;;;;-2.11;100;96089.99;;;;
2021/04/14 04:47:15;;;;;;;18.25;10.85;;;;;;;-2.14;100;96099.45;;;;
2021/04/14 04:48:16;;;;;;;18.25;10.85;;;;;;;-2.14;100;96099.45;;;;
2021/04/14 04:49:16;;;;;;;18.25;10.85;;;;;;;-2.14;100;96099.45;;;;
2021/04/14 04:50:17;;;;;;;18.25;10.85;;;;;;;-2.14;100;96099.45;;;;
2021/04/14 04:51:19;;;;;;;18.25;10.85;;;;;;;-2.14;100;96099.45;;;;
2021/04/14 04:52:20;;;;;;;18.25;10.85;;;;;;;-2.14;100;96099.45;;;;
2021/04/14 04:53:20;;;;;;;18.25;10.85;;;;;;;-2.14;100;96099.45;;;;
2021/04/14 04:54:23;;;;;;;18.25;10.85;;;;;;;-2.14;100;96099.45;;;;
2021/04/14 04:55:24;;;;;;;18.25;10.85;;;;;;;-2.14;100;96099.45;;;;
2021/04/14 04:56:24;;;;;;;18.25;10.85;;;;;;;-2.14;100;96099.45;;;;
2021/04/14 04:57:25;;;;;;;18.25;10.85;;;;;;;-2.14;100;96099.45;;;;
2021/04/14 04:58:26;;;;;;;19.6;10.8;;;;;;;-1.92;100;96094.78;;;;
2021/04/14 04:59:26;;;;;;;19.6;10.8;;;;;;;-1.92;100;96094.78;;;;
2021/04/14 05:00:27;;;;;;;19.6;10.8;;;;;;;-1.92;100;96094.78;;;;
2021/04/14 05:01:28;;;;;;;19.6;10.8;;;;;;;-1.92;100;96094.78;;;;
2021/04/14 05:02:28;;;;;;;19.6;10.8;;;;;;;-1.92;100;96094.78;;;;
2021/04/14 05:03:29;;;;;;;19.6;10.8;;;;;;;-1.92;100;96094.78;;;;
2021/04/14 05:04:29;;;;;;;19.6;10.8;;;;;;;-1.92;100;96094.78;;;;
2021/04/14 05:05:30;;;;;;;19.6;10.8;;;;;;;-1.92;100;96094.78;;;;
2021/04/14 05:06:31;;;;;;;19.6;10.8;;;;;;;-1.92;100;96094.78;;;;
2021/04/14 05:07:32;;;;;;;19.6;10.8;;;;;;;-1.92;100;96094.78;;;;
2021/04/14 05:08:32;;;;;;;18.2;10.75;;;;;;;-1.56;100;96096.36;;;;
2021/04/14 05:09:33;;;;;;;18.2;10.75;;;;;;;-1.56;100;96096.36;;;;
2021/04/14 05:10:33;;;;;;;18.2;10.75;;;;;;;-1.56;100;96096.36;;;;
2021/04/14 05:11:35;;;;;;;18.2;10.75;;;;;;;-1.56;100;96096.36;;;;
2021/04/14 05:12:35;;;;;;;18.2;10.75;;;;;;;-1.56;100;96096.36;;;;
2021/04/14 05:13:36;;;;;;;18.2;10.75;;;;;;;-1.56;100;96096.36;;;;
2021/04/14 05:14:36;;;;;;;18.2;10.75;;;;;;;-1.56;100;96096.36;;;;
2021/04/14 05:15:38;;;;;;;18.2;10.75;;;;;;;-1.56;100;96096.36;;;;
2021/04/14 05:16:40;;;;;;;18.2;10.75;;;;;;;-1.56;100;96096.36;;;;
2021/04/14 05:17:40;;;;;;;18.2;10.75;;;;;;;-1.56;100;96096.36;;;;
2021/04/14 05:18:41;;;;;;;18.2;10.75;;;;;;;-1.56;100;96096.36;;;;
2021/04/14 05:19:41;;;;;;;16.15;9.35;;;;;;;-1.42;100;96112.61;;;;
2021/04/14 05:20:42;;;;;;;16.15;9.35;;;;;;;-1.42;100;96112.61;;;;
2021/04/14 05:21:44;;;;;;;16.15;9.35;;;;;;;-1.42;100;96112.61;;;;
2021/04/14 05:22:45;;;;;;;16.15;9.35;;;;;;;-1.42;100;96112.61;;;;
2021/04/14 05:23:46;;;;;;;16.15;9.35;;;;;;;-1.42;100;96112.61;;;;
2021/04/14 05:24:47;;;;;;;16.15;9.35;;;;;;;-1.42;100;96112.61;;;;
2021/04/14 05:25:47;;;;;;;16.15;9.35;;;;;;;-1.42;100;96112.61;;;;
2021/04/14 05:26:48;;;;;;;16.15;9.35;;;;;;;-1.42;100;96112.61;;;;
2021/04/14 05:27:50;;;;;;;16.15;9.35;;;;;;;-1.42;100;96112.61;;;;
2021/04/14 05:28:51;;;;;;;16.15;9.35;;;;;;;-1.42;100;96112.61;;;;
2021/04/14 05:29:52;;;;;;;15.7;9.849999;;;;;;;-1.32;100;96099.77;;;;
2021/04/14 05:30:52;;;;;;;15.7;9.849999;;;;;;;-1.32;100;96099.77;;;;
2021/04/14 05:31:53;;;;;;;15.7;9.849999;;;;;;;-1.32;100;96099.77;;;;
2021/04/14 05:32:54;;;;;;;15.7;9.849999;;;;;;;-1.32;100;96099.77;;;;
2021/04/14 05:33:55;;;;;;;15.7;9.849999;;;;;;;-1.32;100;96099.77;;;;
2021/04/14 05:34:56;;;;;;;15.7;9.849999;;;;;;;-1.32;100;96099.77;;;;
2021/04/14 05:35:56;;;;;;;15.7;9.849999;;;;;;;-1.32;100;96099.77;;;;
2021/04/14 05:36:57;;;;;;;15.7;9.849999;;;;;;;-1.32;100;96099.77;;;;
2021/04/14 05:37:57;;;;;;;15.7;9.849999;;;;;;;-1.32;100;96099.77;;;;
2021/04/14 05:38:58;;;;;;;15.7;9.849999;;;;;;;-1.32;100;96099.77;;;;
2021/04/14 05:39:58;;;;;;;15.7;9.849999;;;;;;;-1.32;100;96099.77;;;;
2021/04/14 05:40:59;;;;;;;16.65;9.849999;;;;;;;-1.05;100;96108.2;;;;
2021/04/14 05:41:59;;;;;;;16.65;9.849999;;;;;;;-1.05;100;96108.2;;;;
2021/04/14 05:43:00;;;;;;;16.65;9.849999;;;;;;;-1.05;100;96108.2;;;;
2021/04/14 05:44:12;;;;;;;16.65;9.849999;;;;;;;-1.05;100;96108.2;;;;
2021/04/14 05:45:12;;;;;;;16.65;9.849999;;;;;;;-1.05;100;96108.2;;;;
2021/04/14 05:46:16;;;;;;;16.65;9.849999;;;;;;;-1.05;100;96108.2;;;;
2021/04/14 05:47:19;;;;;;;16.65;9.849999;;;;;;;-1.05;100;96108.2;;;;
2021/04/14 05:48:20;;;;;;;16.65;9.849999;;;;;;;-1.05;100;96108.2;;;;
2021/04/14 05:49:21;;;;;;;16.65;9.849999;;;;;;;-1.05;100;96108.2;;;;
2021/04/14 05:50:21;;;;;;;16.65;9.849999;;;;;;;-1.05;100;96108.2;;;;
2021/04/14 05:51:25;;;;;;;14.9;10.2;;;;;;;-0.71;100;96110.63;;;;
2021/04/14 05:52:29;;;;;;;14.9;10.2;;;;;;;-0.71;100;96110.63;;;;
2021/04/14 05:53:29;;;;;;;14.9;10.2;;;;;;;-0.71;100;96110.63;;;;
2021/04/14 05:54:30;;;;;;;14.9;10.2;;;;;;;-0.71;100;96110.63;;;;
2021/04/14 05:55:30;;;;;;;14.9;10.2;;;;;;;-0.71;100;96110.63;;;;
2021/04/14 05:56:31;;;;;;;14.9;10.2;;;;;;;-0.71;100;96110.63;;;;
2021/04/14 05:57:32;;;;;;;14.9;10.2;;;;;;;-0.71;100;96110.63;;;;
2021/04/14 05:58:32;;;;;;;14.9;10.2;;;;;;;-0.71;100;96110.63;;;;
2021/04/14 05:59:34;;;;;;;14.9;10.2;;;;;;;-0.71;100;96110.63;;;;
2021/04/14 06:00:35;;;;;;;14.9;10.2;;;;;;;-0.71;100;96110.63;;;;
2021/04/14 06:01:37;;;;;;;14.9;10.2;;;;;;;-0.71;100;96110.63;;;;
2021/04/14 06:02:41;;;;;;;15.65;9.800001;;;;;;;-0.35;100;96107.56;;;;
2021/04/14 06:03:42;;;;;;;15.65;9.800001;;;;;;;-0.35;100;96107.56;;;;
2021/04/14 06:04:42;;;;;;;15.65;9.800001;;;;;;;-0.35;100;96107.56;;;;
2021/04/14 06:05:43;;;;;;;15.65;9.800001;;;;;;;-0.35;100;96107.56;;;;